Flight Track Log - Related Links

Times and Time Zones

All times are in EDT time to prevent confusion due to time zone crossing. See the LXJ549 flight status page for this flight to view local times or setup timezone preferences in your user account.

Time Position Orientation Groundspeed Altitude Reporting Facility
EDT Latitude Longitude Course Direction KTS MPH feet Rate Location/Type
Tue 03:57:46 PM 39.2856 -106.9358 301° West 242 278 11,500  Level Denver Center
Tue 03:58:47 PM 39.3133 -107.0208 293° West 257 296 14,400 2,780 Climbing Denver Center
Tue 03:59:49 PM 39.3614 -107.1067 306° West 289 333 17,200 2,323 Climbing Denver Center
Tue 04:00:51 PM 39.4353 -107.2114 312° West 353 406 19,200 1,984 Climbing Denver Center
Tue 04:01:53 PM 39.5128 -107.2997 319° Northwest 375 432 21,300 2,293 Climbing Denver Center
Tue 04:02:00 PM 39.5761 -107.3761 322° Northwest  Level FlightAware Approximate
Tue 04:02:54 PM 39.6108 -107.4078 320° Northwest 404 465 23,900  Level Denver Center
Tue 04:03:56 PM 39.6964 -107.5022 320° Northwest 418 481 26,000 2,081 Climbing Denver Center
Tue 04:04:58 PM 39.7961 -107.6136 319° Northwest 426 490 28,200 1,935 Climbing Denver Center
Tue 04:06:00 PM 39.8803 -107.7094 319° Northwest 424 488 30,000 1,742 Climbing Denver Center
Tue 04:07:02 PM 39.9819 -107.8244 319° Northwest 431 496 31,800 1,561 Climbing Denver Center
Tue 04:08:03 PM 40.0703 -107.9239 319° Northwest 436 502 33,200 1,122 Climbing Denver Center
Tue 04:09:05 PM 40.1728 -107.9986 331° Northwest 445 512 34,100 871 Climbing Denver Center
Tue 04:10:07 PM 40.2950 -108.0839 332° Northwest 447 514 35,000 435 Climbing Denver Center
Tue 04:11:09 PM 40.3992 -108.1558 332° Northwest 444 511 35,000  Level Denver Center
Tue 04:12:10 PM 40.5172 -108.2403 331° Northwest 435 501 35,000  Level Denver Center
Tue 04:13:12 PM 40.6292 -108.3192 332° Northwest 434 499 35,000 48 Level Salt Lake Center
Tue 04:14:14 PM 40.7339 -108.3936 332° Northwest 432 497 35,100 484 Climbing Denver Center
Tue 04:15:16 PM 40.8503 -108.4769 332° Northwest 437 503 36,000 435 Climbing Denver Center
Tue 04:16:18 PM 40.9558 -108.5519 332° Northwest 451 519 36,000  Level Denver Center
Tue 04:17:20 PM 41.0781 -108.6394 332° Northwest 449 517 36,000  Level Denver Center
Tue 04:18:21 PM 41.1644 -108.7033 331° Northwest 447 514 36,000  Level Denver Center
Tue 04:19:23 PM 41.3028 -108.8022 332° Northwest 445 512 36,000  Level Denver Center
Tue 04:20:26 PM 41.4072 -108.8792 331° Northwest 451 519 36,000  Level Salt Lake Center
Tue 04:21:29 PM 41.5292 -108.9669 332° Northwest 454 522 36,000 -96 Level Salt Lake Center
Tue 04:22:31 PM 41.6331 -109.0436 331° Northwest 452 520 35,800 -968 Descending Salt Lake Center
Tue 04:23:33 PM 41.7542 -109.1331 331° Northwest 449 517 34,000 -871 Descending Salt Lake Center
Tue 04:24:35 PM 41.8572 -109.2089 331° Northwest 445 512 34,000 -339 Level Salt Lake Center
Tue 04:25:37 PM 41.9792 -109.2983 331° Northwest 447 514 33,300 -774 Descending Salt Lake Center
Tue 04:26:39 PM 42.0831 -109.3753 331° Northwest 447 514 32,400 -1,016 Descending Salt Lake Center
Tue 04:27:41 PM 42.2033 -109.4656 331° Northwest 444 511 31,200 -1,306 Descending Salt Lake Center
Tue 04:28:43 PM 42.3103 -109.5456 331° Northwest 453 521 29,700 -1,500 Descending Salt Lake Center
Tue 04:29:45 PM 42.4331 -109.6372 331° Northwest 453 521 28,100 -1,500 Descending Salt Lake Center
Tue 04:30:47 PM 42.5358 -109.7136 331° Northwest 445 512 26,600 -1,548 Descending Salt Lake Center
Tue 04:31:49 PM 42.6558 -109.8044 331° Northwest 443 510 24,900 -1,500 Descending Salt Lake Center
Tue 04:32:51 PM 42.7617 -109.8842 331° Northwest 437 503 23,500 -1,403 Descending Salt Lake Center
Tue 04:33:53 PM 42.8608 -109.9578 331° Northwest 428 493 22,000 -1,548 Descending Salt Lake Center
Tue 04:34:55 PM 42.9722 -110.0442 330° Northwest 413 475 20,300 -1,597 Descending Salt Lake Center
Tue 04:35:57 PM 43.0781 -110.1264 330° Northwest 408 470 18,700 -1,306 Descending Salt Lake Center
Tue 04:36:59 PM 43.1700 -110.1942 332° Northwest 396 456 17,600 -1,073 Descending Salt Lake Center
Tue 04:38:00 PM 43.2586 -110.2644 330° Northwest 389 448 16,500 -976 Descending Salt Lake Center
Tue 04:39:02 PM 43.3489 -110.3283 333° Northwest 361 415 15,600 -774 Descending Salt Lake Center
Tue 04:40:04 PM 43.4308 -110.3928 330° Northwest 342 394 14,900 -581 Descending Salt Lake Center
Tue 04:41:06 PM 43.5247 -110.4675 330° Northwest 328 377 14,400 -823 Descending Salt Lake Center
Tue 04:42:08 PM 43.6011 -110.5272 330° Northwest 319 367 13,200 -1,500 Descending Salt Lake Center
Tue 04:43:10 PM 43.6689 -110.5939 325° Northwest 309 356 11,300 -1,790 Descending Salt Lake Center
Tue 04:44:12 PM 43.7211 -110.6553 320° Northwest 267 307 9,500 -1,645 Descending Salt Lake Center
Tue 04:45:14 PM 43.6867 -110.7047 226° Southwest 200 230 7,900 -1,210 Descending Salt Lake Center
Tue 04:46:16 PM 43.6414 -110.7186 193° South 176 203 7,000 -871 Descending Salt Lake Center

Login

Don't have an account? Register now (free) for customized features, flight alerts, and more!